createdAt,value
2022-10-07T00:01:35.207Z,100.00
2022-10-07T00:04:03.338Z,100.00
2022-10-07T00:06:31.437Z,100.00
2022-10-07T00:09:01.737Z,100.00
2022-10-07T00:11:30.809Z,100.00
2022-10-07T00:14:01.149Z,100.00
2022-10-07T00:16:31.354Z,100.00
2022-10-07T00:19:02.744Z,100.00
2022-10-07T00:21:34.322Z,100.00
2022-10-07T00:24:03.023Z,100.00
2022-10-07T00:26:33.554Z,100.00
2022-10-07T00:29:02.260Z,100.00
2022-10-07T00:31:31.684Z,100.00
2022-10-07T00:34:01.641Z,100.00
2022-10-07T00:36:32.484Z,100.00
2022-10-07T00:39:02.301Z,100.00
2022-10-07T00:41:32.849Z,100.00
2022-10-07T00:44:01.932Z,100.00
2022-10-07T00:46:34.940Z,100.00
2022-10-07T00:49:09.323Z,100.00
2022-10-07T00:51:38.418Z,100.00
2022-10-07T00:54:11.985Z,100.00
2022-10-07T00:56:41.766Z,100.00
2022-10-07T00:59:11.269Z,100.00
2022-10-07T01:01:42.256Z,100.00
2022-10-07T01:04:13.989Z,100.00
2022-10-07T01:06:43.071Z,100.00
2022-10-07T01:09:12.822Z,100.00
2022-10-07T01:11:51.931Z,100.00
2022-10-07T01:14:29.421Z,100.00
2022-10-07T01:17:03.005Z,100.00
2022-10-07T01:19:55.496Z,100.00
2022-10-07T01:22:34.296Z,100.00
2022-10-07T01:25:21.587Z,100.00
2022-10-07T01:27:54.996Z,100.00
2022-10-07T01:30:23.451Z,100.00
2022-10-07T01:32:56.877Z,100.00
2022-10-07T01:35:29.049Z,100.00
2022-10-07T01:38:01.559Z,100.00
2022-10-07T01:40:44.359Z,100.00
2022-10-07T01:43:16.921Z,100.00
2022-10-07T01:45:45.128Z,100.00
2022-10-07T01:48:13.471Z,100.00
2022-10-07T01:50:42.186Z,100.00
2022-10-07T01:53:28.174Z,100.00
2022-10-07T01:56:12.580Z,100.00
2022-10-07T01:58:56.536Z,100.00
2022-10-07T02:01:34.741Z,100.00
2022-10-07T02:04:31.184Z,100.00
2022-10-07T02:07:08.203Z,100.00
2022-10-07T02:09:41.195Z,100.00
2022-10-07T02:12:17.129Z,100.00
2022-10-07T02:14:54.720Z,100.00
2022-10-07T02:17:24.797Z,100.00
2022-10-07T02:19:57.871Z,100.00
2022-10-07T02:22:29.673Z,100.00
2022-10-07T02:24:59.998Z,100.00
2022-10-07T02:27:33.123Z,100.00
2022-10-07T02:30:06.338Z,100.00
2022-10-07T02:32:36.162Z,100.00
2022-10-07T02:35:10.146Z,100.00
2022-10-07T02:37:41.040Z,100.00
2022-10-07T02:40:12.394Z,100.00
2022-10-07T02:42:47.998Z,100.00
2022-10-07T02:45:26.684Z,100.00
2022-10-07T02:48:02.144Z,100.00
2022-10-07T02:50:38.605Z,100.00
2022-10-07T02:53:07.646Z,100.00
2022-10-07T02:55:36.870Z,100.00
2022-10-07T02:58:10.207Z,100.00
2022-10-07T03:00:44.525Z,100.00
2022-10-07T03:03:12.900Z,100.00
2022-10-07T03:05:41.468Z,100.00
2022-10-07T03:08:12.034Z,100.00
2022-10-07T03:10:40.952Z,100.00
2022-10-07T03:13:09.215Z,100.00
2022-10-07T03:15:42.406Z,100.00
2022-10-07T03:18:26.798Z,100.00
2022-10-07T03:20:55.572Z,100.00
2022-10-07T03:23:24.722Z,100.00
2022-10-07T03:25:54.142Z,100.00
2022-10-07T03:28:23.486Z,100.00
2022-10-07T03:30:51.886Z,100.00
2022-10-07T03:33:26.520Z,100.00
2022-10-07T03:35:54.732Z,100.00
2022-10-07T03:38:23.387Z,100.00
2022-10-07T03:40:53.047Z,100.00
2022-10-07T03:43:21.724Z,100.00
2022-10-07T03:45:52.432Z,100.00
2022-10-07T03:48:22.193Z,100.00
2022-10-07T03:50:51.212Z,100.00
2022-10-07T03:53:20.427Z,100.00
2022-10-07T03:55:51.732Z,100.00
2022-10-07T03:58:19.941Z,100.00
2022-10-07T04:00:48.807Z,100.00
2022-10-07T04:03:18.859Z,100.00
2022-10-07T04:06:00.520Z,100.00
2022-10-07T04:08:29.607Z,100.00
2022-10-07T04:10:58.640Z,100.00
2022-10-07T04:13:27.122Z,100.00
2022-10-07T04:15:55.787Z,100.00
2022-10-07T04:18:24.685Z,100.00
2022-10-07T04:20:53.063Z,100.00
2022-10-07T04:23:23.185Z,100.00
2022-10-07T04:25:51.350Z,100.00
2022-10-07T04:28:21.659Z,100.00
2022-10-07T04:30:51.670Z,100.00
2022-10-07T04:33:21.358Z,100.00
2022-10-07T04:35:50.396Z,100.00
2022-10-07T04:38:19.982Z,100.00
2022-10-07T04:40:51.599Z,100.00
2022-10-07T04:43:21.027Z,100.00
2022-10-07T04:45:50.570Z,100.00
2022-10-07T04:48:20.128Z,100.00
2022-10-07T04:50:48.947Z,100.00
2022-10-07T04:53:18.217Z,100.00
2022-10-07T04:55:47.832Z,100.00
2022-10-07T04:58:17.986Z,100.00
2022-10-07T05:00:48.207Z,100.00
2022-10-07T05:03:18.793Z,100.00
2022-10-07T05:05:48.172Z,100.00
2022-10-07T05:08:18.686Z,100.00
2022-10-07T05:10:46.862Z,100.00
2022-10-07T05:13:18.212Z,100.00
2022-10-07T05:15:50.763Z,100.00
2022-10-07T05:18:20.145Z,100.00
2022-10-07T05:20:48.993Z,100.00
2022-10-07T05:23:19.161Z,100.00
2022-10-07T05:25:48.059Z,100.00
2022-10-07T05:28:19.018Z,100.00
2022-10-07T05:30:47.129Z,100.00
2022-10-07T05:33:15.408Z,100.00
2022-10-07T05:35:47.654Z,100.00
2022-10-07T05:38:15.757Z,100.00
2022-10-07T05:40:44.136Z,100.00
2022-10-07T05:43:12.471Z,100.00
2022-10-07T05:45:43.407Z,100.00
2022-10-07T05:48:12.753Z,100.00
2022-10-07T05:50:41.200Z,100.00
2022-10-07T05:53:09.521Z,100.00
2022-10-07T05:55:42.097Z,100.00
2022-10-07T05:58:10.601Z,100.00
2022-10-07T06:00:42.669Z,100.00
2022-10-07T06:03:12.550Z,100.00
2022-10-07T06:05:41.084Z,100.00
2022-10-07T06:08:09.263Z,100.00
2022-10-07T06:10:54.869Z,100.00
2022-10-07T06:13:24.555Z,100.00
2022-10-07T06:15:52.946Z,100.00
2022-10-07T06:18:22.694Z,100.00
2022-10-07T06:20:57.692Z,100.00
2022-10-07T06:23:26.415Z,100.00
2022-10-07T06:25:57.052Z,100.00
2022-10-07T06:28:25.427Z,100.00
2022-10-07T06:30:54.336Z,100.00
2022-10-07T06:33:23.948Z,100.00
2022-10-07T06:35:56.724Z,100.00
2022-10-07T06:38:27.204Z,100.00
2022-10-07T06:40:59.250Z,100.00
2022-10-07T06:43:28.152Z,100.00
2022-10-07T06:46:00.331Z,100.00
2022-10-07T06:48:32.313Z,100.00
2022-10-07T06:51:03.406Z,100.00
2022-10-07T06:53:32.966Z,100.00
2022-10-07T06:56:03.553Z,100.00
2022-10-07T06:58:31.873Z,100.00
2022-10-07T07:01:00.878Z,100.00
2022-10-07T07:03:31.287Z,100.00
2022-10-07T07:06:00.179Z,100.00
2022-10-07T07:08:31.857Z,100.00
2022-10-07T07:11:05.806Z,100.00
2022-10-07T07:13:35.442Z,100.00
2022-10-07T07:16:03.743Z,100.00
2022-10-07T07:18:33.208Z,100.00
2022-10-07T07:21:03.785Z,100.00
2022-10-07T07:23:32.583Z,100.00
2022-10-07T07:26:02.064Z,100.00
2022-10-07T07:28:31.549Z,100.00
2022-10-07T07:30:59.993Z,100.00
2022-10-07T07:33:28.827Z,100.00
2022-10-07T07:35:59.118Z,100.00
2022-10-07T07:38:27.690Z,100.00
2022-10-07T07:40:55.877Z,100.00
2022-10-07T07:43:24.062Z,100.00
2022-10-07T07:45:52.565Z,100.00
2022-10-07T07:48:20.624Z,100.00
2022-10-07T07:50:48.877Z,100.00
2022-10-07T07:53:18.902Z,100.00
2022-10-07T07:55:53.894Z,100.00
2022-10-07T07:58:29.146Z,100.00
2022-10-07T08:01:02.016Z,100.00
2022-10-07T08:03:30.254Z,100.00
2022-10-07T08:06:02.099Z,100.00
2022-10-07T08:08:32.252Z,100.00
2022-10-07T08:11:08.310Z,100.00
2022-10-07T08:13:39.361Z,100.00
2022-10-07T08:16:08.684Z,100.00
2022-10-07T08:18:37.646Z,100.00
2022-10-07T08:21:07.985Z,100.00
2022-10-07T08:23:38.351Z,100.00
2022-10-07T08:26:07.791Z,100.00
2022-10-07T08:28:36.944Z,100.00
2022-10-07T08:31:07.032Z,100.00
2022-10-07T08:33:37.281Z,100.00
2022-10-07T08:36:07.530Z,100.00
2022-10-07T08:38:39.083Z,100.00
2022-10-07T08:41:23.817Z,100.00
2022-10-07T08:43:53.045Z,100.00
2022-10-07T08:46:28.043Z,100.00
2022-10-07T08:49:00.161Z,100.00
2022-10-07T08:51:39.037Z,100.00
2022-10-07T08:54:15.257Z,100.00
2022-10-07T08:56:44.038Z,100.00
2022-10-07T08:59:21.797Z,100.00
2022-10-07T09:02:04.712Z,100.00
2022-10-07T09:04:47.244Z,100.00
2022-10-07T09:07:19.005Z,100.00
2022-10-07T09:09:54.969Z,100.00
2022-10-07T09:12:30.581Z,100.00
2022-10-07T09:15:02.920Z,100.00
2022-10-07T09:17:36.695Z,100.00
2022-10-07T09:20:16.596Z,100.00
2022-10-07T09:22:53.707Z,100.00
2022-10-07T09:25:25.057Z,100.00
2022-10-07T09:27:54.679Z,100.00
2022-10-07T09:30:24.456Z,100.00
2022-10-07T09:32:55.446Z,100.00
2022-10-07T09:35:26.091Z,100.00
2022-10-07T09:38:00.292Z,100.00
2022-10-07T09:41:00.705Z,100.00
2022-10-07T09:43:30.410Z,100.00
2022-10-07T09:46:00.823Z,100.00
2022-10-07T09:48:33.722Z,100.00
2022-10-07T09:51:15.924Z,100.00
2022-10-07T09:53:59.252Z,100.00
2022-10-07T09:56:41.786Z,100.00
2022-10-07T09:59:24.768Z,100.00
2022-10-07T10:01:58.974Z,100.00
2022-10-07T10:04:32.594Z,100.00
2022-10-07T10:07:06.407Z,100.00
2022-10-07T10:09:36.048Z,100.00
2022-10-07T10:12:17.433Z,100.00
2022-10-07T10:14:49.669Z,100.00
2022-10-07T10:17:31.861Z,100.00
2022-10-07T10:20:31.982Z,100.00
2022-10-07T10:23:02.298Z,100.00
2022-10-07T10:26:01.490Z,100.00
2022-10-07T10:28:45.216Z,100.00
2022-10-07T10:31:22.665Z,100.00
2022-10-07T10:34:01.524Z,100.00
2022-10-07T10:36:36.290Z,100.00
2022-10-07T10:39:11.800Z,100.00
2022-10-07T10:41:50.820Z,100.00
2022-10-07T10:44:33.332Z,100.00
2022-10-07T10:47:12.497Z,100.00
2022-10-07T10:49:50.256Z,100.00
2022-10-07T10:52:32.668Z,100.00
2022-10-07T10:55:36.912Z,100.00
2022-10-07T10:58:21.929Z,100.00
2022-10-07T11:01:01.260Z,100.00
2022-10-07T11:03:45.412Z,99.51
2022-10-07T11:06:18.181Z,98.76
2022-10-07T11:08:47.797Z,95.31
2022-10-07T11:11:19.449Z,100.00
2022-10-07T11:13:52.850Z,92.07
2022-10-07T11:16:26.636Z,91.20
2022-10-07T11:18:59.237Z,86.59
2022-10-07T11:21:33.002Z,94.77
2022-10-07T11:24:05.550Z,95.75
2022-10-07T11:26:39.561Z,96.40
2022-10-07T11:29:20.407Z,93.69
2022-10-07T11:31:57.821Z,90.02
2022-10-07T11:34:36.453Z,95.86
2022-10-07T11:37:11.240Z,100.00
2022-10-07T11:39:40.677Z,93.77
2022-10-07T11:42:17.276Z,85.84
2022-10-07T11:44:55.019Z,84.43
2022-10-07T11:47:31.954Z,85.12
2022-10-07T11:50:07.883Z,86.98
2022-10-07T11:52:42.593Z,83.78
2022-10-07T11:55:19.078Z,84.90
2022-10-07T11:57:54.696Z,84.03
2022-10-07T12:00:28.828Z,89.53
2022-10-07T12:02:59.029Z,87.78
2022-10-07T12:05:57.709Z,93.03
2022-10-07T12:08:32.735Z,93.87
2022-10-07T12:11:43.834Z,94.08
2022-10-07T12:14:41.353Z,92.42
2022-10-07T12:17:21.199Z,91.65
2022-10-07T12:20:31.738Z,88.31
2022-10-07T12:23:42.915Z,86.71
2022-10-07T12:26:50.233Z,86.38
2022-10-07T12:29:40.370Z,92.09
2022-10-07T12:32:41.413Z,86.77
2022-10-07T12:35:48.753Z,87.11
2022-10-07T12:38:24.927Z,91.58
2022-10-07T12:41:23.332Z,88.44
2022-10-07T12:43:59.209Z,86.75
2022-10-07T12:46:32.365Z,87.21
2022-10-07T12:49:05.295Z,85.04
2022-10-07T12:51:39.508Z,84.81
2022-10-07T12:54:14.670Z,86.28
2022-10-07T12:56:46.320Z,87.83
2022-10-07T12:59:52.901Z,89.76
2022-10-07T13:03:04.204Z,86.51
2022-10-07T13:06:16.107Z,85.77
2022-10-07T13:09:27.177Z,85.97
2022-10-07T13:12:12.750Z,84.73
2022-10-07T13:14:54.367Z,85.56
2022-10-07T13:17:36.845Z,83.72
2022-10-07T13:20:20.158Z,83.68
2022-10-07T13:22:50.547Z,82.30
2022-10-07T13:25:20.935Z,82.11
2022-10-07T13:27:55.190Z,83.22
2022-10-07T13:30:38.767Z,83.08
2022-10-07T13:33:28.156Z,85.19
2022-10-07T13:36:16.199Z,84.63
2022-10-07T13:38:46.408Z,86.26
2022-10-07T13:41:22.181Z,85.29
2022-10-07T13:43:54.817Z,88.02
2022-10-07T13:46:25.642Z,86.77
2022-10-07T13:48:56.448Z,90.40
2022-10-07T13:51:30.112Z,87.55
2022-10-07T13:54:00.525Z,84.22
2022-10-07T13:56:33.820Z,83.26
2022-10-07T13:59:06.853Z,82.48
2022-10-07T14:01:39.895Z,83.71
2022-10-07T14:04:22.064Z,84.28
2022-10-07T14:07:00.352Z,84.29
2022-10-07T14:09:53.938Z,84.96
2022-10-07T14:12:26.149Z,85.18
2022-10-07T14:15:01.303Z,87.04
2022-10-07T14:17:41.151Z,85.47
2022-10-07T14:20:21.781Z,86.79
2022-10-07T14:22:53.513Z,85.96
2022-10-07T14:25:23.426Z,87.08
2022-10-07T14:28:08.001Z,87.06
2022-10-07T14:30:57.452Z,91.25
2022-10-07T14:33:48.394Z,90.44
2022-10-07T14:36:18.742Z,88.41
2022-10-07T14:38:48.675Z,88.98
2022-10-07T14:41:19.979Z,92.23
2022-10-07T14:43:50.212Z,93.15
2022-10-07T14:46:24.688Z,89.84
2022-10-07T14:48:54.278Z,90.95
2022-10-07T14:51:26.111Z,89.25
2022-10-07T14:54:02.301Z,87.16
2022-10-07T14:56:33.314Z,87.21
2022-10-07T14:59:01.893Z,87.10
2022-10-07T15:01:31.838Z,85.03
2022-10-07T15:04:00.390Z,84.13
2022-10-07T15:06:29.311Z,87.18
2022-10-07T15:08:57.485Z,86.30
2022-10-07T15:11:25.585Z,86.24
2022-10-07T15:13:53.768Z,85.43
2022-10-07T15:16:23.508Z,85.45
2022-10-07T15:18:54.176Z,88.49
2022-10-07T15:21:23.445Z,86.65
2022-10-07T15:23:53.304Z,93.36
2022-10-07T15:26:24.481Z,86.92
2022-10-07T15:28:54.465Z,99.30
2022-10-07T15:31:24.688Z,99.71
2022-10-07T15:33:58.088Z,100.00
2022-10-07T15:36:27.604Z,100.00
2022-10-07T15:38:56.348Z,100.00
2022-10-07T15:41:34.037Z,100.00
2022-10-07T15:44:03.898Z,100.00
2022-10-07T15:46:32.760Z,100.00
2022-10-07T15:49:03.952Z,100.00
2022-10-07T15:51:32.606Z,100.00
2022-10-07T15:54:01.133Z,100.00
2022-10-07T15:56:29.709Z,100.00
2022-10-07T15:58:59.067Z,100.00
2022-10-07T16:01:28.469Z,100.00
2022-10-07T16:03:56.759Z,100.00
2022-10-07T16:06:29.281Z,100.00
2022-10-07T16:09:00.444Z,100.00
2022-10-07T16:11:31.838Z,100.00
2022-10-07T16:14:02.293Z,100.00
2022-10-07T16:16:32.789Z,100.00
2022-10-07T16:19:03.887Z,100.00
2022-10-07T16:21:35.866Z,100.00
2022-10-07T16:24:06.694Z,100.00
2022-10-07T16:26:37.499Z,100.00
2022-10-07T16:29:26.078Z,100.00
2022-10-07T16:31:58.846Z,100.00
2022-10-07T16:34:29.205Z,100.00
2022-10-07T16:36:59.725Z,100.00
2022-10-07T16:39:28.213Z,100.00
2022-10-07T16:41:56.755Z,100.00
2022-10-07T16:44:24.925Z,100.00
2022-10-07T16:46:56.831Z,100.00
2022-10-07T16:49:27.944Z,100.00
2022-10-07T16:51:56.597Z,100.00
2022-10-07T16:54:28.655Z,100.00
2022-10-07T16:56:58.572Z,100.00
2022-10-07T16:59:27.348Z,100.00
2022-10-07T17:02:00.210Z,100.00
2022-10-07T17:04:28.540Z,100.00
2022-10-07T17:06:56.969Z,100.00
2022-10-07T17:09:26.676Z,100.00
2022-10-07T17:11:55.612Z,100.00
2022-10-07T17:14:24.320Z,100.00
2022-10-07T17:16:54.901Z,100.00
2022-10-07T17:19:25.018Z,100.00
2022-10-07T17:21:54.170Z,100.00
2022-10-07T17:24:23.759Z,100.00
2022-10-07T17:26:53.793Z,100.00
2022-10-07T17:29:25.889Z,100.00
2022-10-07T17:31:55.075Z,100.00
2022-10-07T17:34:23.741Z,100.00
2022-10-07T17:36:52.446Z,100.00
2022-10-07T17:39:20.634Z,100.00
2022-10-07T17:41:49.717Z,100.00
2022-10-07T17:44:21.560Z,100.00
2022-10-07T17:46:50.453Z,100.00
2022-10-07T17:49:18.916Z,100.00
2022-10-07T17:51:46.982Z,100.00
2022-10-07T17:54:15.859Z,100.00
2022-10-07T17:56:44.653Z,100.00
2022-10-07T17:59:12.796Z,100.00
2022-10-07T18:01:45.049Z,100.00
2022-10-07T18:04:19.928Z,100.00
2022-10-07T18:06:50.763Z,100.00
2022-10-07T18:09:19.557Z,100.00
2022-10-07T18:12:05.634Z,100.00
2022-10-07T18:14:53.718Z,100.00
2022-10-07T18:17:25.072Z,100.00
2022-10-07T18:19:53.526Z,100.00
2022-10-07T18:22:21.810Z,100.00
2022-10-07T18:24:51.116Z,100.00
2022-10-07T18:27:21.843Z,100.00
2022-10-07T18:29:49.993Z,100.00
2022-10-07T18:32:18.561Z,100.00
2022-10-07T18:34:48.159Z,100.00
2022-10-07T18:37:17.245Z,100.00
2022-10-07T18:39:45.735Z,100.00
2022-10-07T18:42:14.176Z,100.00
2022-10-07T18:44:42.988Z,100.00
2022-10-07T18:47:11.488Z,100.00
2022-10-07T18:49:39.631Z,100.00
2022-10-07T18:52:09.533Z,100.00
2022-10-07T18:54:37.914Z,100.00
2022-10-07T18:57:06.340Z,100.00
2022-10-07T18:59:34.612Z,100.00
2022-10-07T19:02:03.013Z,100.00
2022-10-07T19:04:31.719Z,100.00
2022-10-07T19:07:00.007Z,100.00
2022-10-07T19:09:30.590Z,100.00
2022-10-07T19:11:58.803Z,100.00
2022-10-07T19:14:26.368Z,100.00
2022-10-07T19:16:54.852Z,100.00
2022-10-07T19:19:24.725Z,100.00
2022-10-07T19:21:55.317Z,100.00
2022-10-07T19:24:44.833Z,100.00
2022-10-07T19:27:14.771Z,100.00
2022-10-07T19:29:43.021Z,100.00
2022-10-07T19:32:11.548Z,100.00
2022-10-07T19:34:39.865Z,100.00
2022-10-07T19:37:08.708Z,100.00
2022-10-07T19:39:37.293Z,100.00
2022-10-07T19:42:05.885Z,100.00
2022-10-07T19:44:38.500Z,100.00
2022-10-07T19:47:06.974Z,100.00
2022-10-07T19:49:35.145Z,100.00
2022-10-07T19:52:03.423Z,100.00
2022-10-07T19:54:36.062Z,100.00
2022-10-07T19:57:04.333Z,100.00
2022-10-07T19:59:32.661Z,100.00
2022-10-07T20:02:02.397Z,100.00
2022-10-07T20:04:31.091Z,100.00
2022-10-07T20:07:00.167Z,100.00
2022-10-07T20:09:28.671Z,100.00
2022-10-07T20:11:57.130Z,100.00
2022-10-07T20:14:25.830Z,100.00
2022-10-07T20:16:56.519Z,100.00
2022-10-07T20:19:26.652Z,100.00
2022-10-07T20:21:54.928Z,100.00
2022-10-07T20:24:23.135Z,100.00
2022-10-07T20:26:51.869Z,100.00
2022-10-07T20:29:25.156Z,100.00
2022-10-07T20:31:54.482Z,100.00
2022-10-07T20:34:26.957Z,100.00
2022-10-07T20:36:57.667Z,100.00
2022-10-07T20:39:43.624Z,100.00
2022-10-07T20:42:25.962Z,100.00
2022-10-07T20:44:55.070Z,100.00
2022-10-07T20:47:26.385Z,100.00
2022-10-07T20:49:57.247Z,100.00
2022-10-07T20:52:29.410Z,100.00
2022-10-07T20:54:58.082Z,100.00
2022-10-07T20:57:29.030Z,100.00
2022-10-07T20:59:57.517Z,100.00
2022-10-07T21:02:29.377Z,100.00
2022-10-07T21:04:59.406Z,100.00
2022-10-07T21:07:29.417Z,100.00
2022-10-07T21:09:58.294Z,100.00
2022-10-07T21:12:26.798Z,100.00
2022-10-07T21:14:56.701Z,100.00
2022-10-07T21:17:25.218Z,100.00
2022-10-07T21:19:53.586Z,100.00
2022-10-07T21:22:21.843Z,100.00
2022-10-07T21:24:51.972Z,100.00
2022-10-07T21:27:20.696Z,100.00
2022-10-07T21:29:49.191Z,100.00
2022-10-07T21:32:18.571Z,100.00
2022-10-07T21:34:47.075Z,100.00
2022-10-07T21:37:15.415Z,100.00
2022-10-07T21:39:43.737Z,100.00
2022-10-07T21:42:13.875Z,100.00
2022-10-07T21:44:44.489Z,100.00
2022-10-07T21:47:13.048Z,100.00
2022-10-07T21:49:41.381Z,100.00
2022-10-07T21:52:09.819Z,100.00
2022-10-07T21:54:38.543Z,100.00
2022-10-07T21:57:06.949Z,100.00
2022-10-07T21:59:37.031Z,100.00
2022-10-07T22:02:06.227Z,100.00
2022-10-07T22:04:34.704Z,100.00
2022-10-07T22:07:20.420Z,100.00
2022-10-07T22:09:48.679Z,100.00
2022-10-07T22:12:18.631Z,100.00
2022-10-07T22:14:48.504Z,100.00
2022-10-07T22:17:17.016Z,100.00
2022-10-07T22:19:45.376Z,100.00
2022-10-07T22:22:14.206Z,100.00
2022-10-07T22:24:42.587Z,100.00
2022-10-07T22:27:11.029Z,100.00
2022-10-07T22:29:40.063Z,100.00
2022-10-07T22:32:09.846Z,100.00
2022-10-07T22:34:55.524Z,100.00
2022-10-07T22:37:23.901Z,100.00
2022-10-07T22:39:52.300Z,100.00
2022-10-07T22:42:20.677Z,100.00
2022-10-07T22:44:49.090Z,100.00
2022-10-07T22:47:19.815Z,100.00
2022-10-07T22:49:48.689Z,100.00
2022-10-07T22:52:17.012Z,100.00
2022-10-07T22:54:45.590Z,100.00
2022-10-07T22:57:13.872Z,100.00
2022-10-07T22:59:42.276Z,100.00
2022-10-07T23:02:10.794Z,100.00
2022-10-07T23:04:40.862Z,100.00
2022-10-07T23:07:11.071Z,100.00
2022-10-07T23:09:39.364Z,100.00
2022-10-07T23:12:07.750Z,100.00
2022-10-07T23:14:36.105Z,100.00
2022-10-07T23:17:04.905Z,100.00
2022-10-07T23:19:33.214Z,100.00
2022-10-07T23:22:03.229Z,100.00
2022-10-07T23:24:31.613Z,100.00
2022-10-07T23:26:59.953Z,100.00
2022-10-07T23:29:28.617Z,100.00
2022-10-07T23:31:56.961Z,100.00
2022-10-07T23:34:25.477Z,100.00
2022-10-07T23:36:55.442Z,100.00
2022-10-07T23:39:25.886Z,100.00
2022-10-07T23:41:54.182Z,100.00
2022-10-07T23:44:24.113Z,100.00
2022-10-07T23:46:52.908Z,100.00
2022-10-07T23:49:21.443Z,100.00
2022-10-07T23:51:51.410Z,100.00
2022-10-07T23:54:20.481Z,100.00
2022-10-07T23:56:50.587Z,100.00
2022-10-07T23:59:19.622Z,100.00
